createdAt,value
2022-10-04T00:00:45.660Z,0.00
2022-10-04T00:01:45.764Z,0.00
2022-10-04T00:02:45.690Z,0.00
2022-10-04T00:03:45.625Z,0.00
2022-10-04T00:04:45.633Z,0.00
2022-10-04T00:05:45.603Z,0.00
2022-10-04T00:06:45.600Z,0.00
2022-10-04T00:07:45.619Z,0.00
2022-10-04T00:08:45.573Z,0.00
2022-10-04T00:09:45.559Z,0.00
2022-10-04T00:10:45.545Z,0.00
2022-10-04T00:11:45.555Z,0.00
2022-10-04T00:12:45.527Z,0.00
2022-10-04T00:13:45.530Z,0.00
2022-10-04T00:14:45.497Z,0.00
2022-10-04T00:15:45.539Z,0.00
2022-10-04T00:16:45.475Z,0.00
2022-10-04T00:17:45.470Z,0.00
2022-10-04T00:18:45.452Z,0.00
2022-10-04T00:19:45.451Z,0.00
2022-10-04T00:20:45.433Z,0.00
2022-10-04T00:21:45.437Z,0.00
2022-10-04T00:22:45.413Z,0.00
2022-10-04T00:23:45.421Z,0.00
2022-10-04T00:24:45.413Z,0.00
2022-10-04T00:25:45.380Z,0.00
2022-10-04T00:26:45.361Z,0.00
2022-10-04T00:27:45.355Z,0.00
2022-10-04T00:28:45.340Z,0.00
2022-10-04T00:29:45.350Z,0.00
2022-10-04T00:30:45.329Z,0.00
2022-10-04T00:31:45.566Z,0.00
2022-10-04T00:32:45.301Z,0.00
2022-10-04T00:33:45.285Z,0.00
2022-10-04T00:34:45.293Z,0.00
2022-10-04T00:35:45.268Z,0.00
2022-10-04T00:36:45.248Z,0.00
2022-10-04T00:37:45.242Z,0.00
2022-10-04T00:38:45.225Z,0.00
2022-10-04T00:39:45.244Z,0.00
2022-10-04T00:40:45.213Z,0.00
2022-10-04T00:41:45.235Z,0.00
2022-10-04T00:42:45.187Z,0.00
2022-10-04T00:43:45.172Z,0.00
2022-10-04T00:44:45.156Z,0.00
2022-10-04T00:45:45.227Z,0.00
2022-10-04T00:46:45.136Z,0.00
2022-10-04T00:47:45.129Z,0.00
2022-10-04T00:48:45.132Z,0.00
2022-10-04T00:49:45.109Z,0.00
2022-10-04T00:50:45.090Z,0.00
2022-10-04T00:51:45.097Z,0.00
2022-10-04T00:52:45.081Z,0.00
2022-10-04T00:53:45.056Z,0.00
2022-10-04T00:54:45.056Z,0.00
2022-10-04T00:55:45.055Z,0.00
2022-10-04T00:56:45.029Z,0.00
2022-10-04T00:57:45.009Z,0.00
2022-10-04T00:58:45.008Z,0.00
2022-10-04T00:59:44.992Z,0.00
2022-10-04T01:00:45.013Z,0.00
2022-10-04T01:01:45.372Z,0.00
2022-10-04T01:02:44.973Z,0.00
2022-10-04T01:03:44.941Z,0.00
2022-10-04T01:04:44.944Z,0.00
2022-10-04T01:05:44.919Z,0.00
2022-10-04T01:06:44.916Z,0.00
2022-10-04T01:07:44.903Z,0.00
2022-10-04T01:08:44.893Z,0.00
2022-10-04T01:09:44.871Z,0.00
2022-10-04T01:10:44.894Z,0.00
2022-10-04T01:11:44.880Z,0.00
2022-10-04T01:12:44.863Z,0.00
2022-10-04T01:13:44.827Z,0.00
2022-10-04T01:14:44.817Z,0.00
2022-10-04T01:15:44.870Z,0.00
2022-10-04T01:16:44.794Z,0.00
2022-10-04T01:17:44.790Z,0.00
2022-10-04T01:18:44.772Z,0.00
2022-10-04T01:19:44.763Z,0.00
2022-10-04T01:20:44.743Z,0.00
2022-10-04T01:21:44.779Z,0.00
2022-10-04T01:22:44.736Z,0.00
2022-10-04T01:23:44.740Z,0.00
2022-10-04T01:24:44.698Z,0.00
2022-10-04T01:25:44.708Z,0.00
2022-10-04T01:26:44.680Z,0.00
2022-10-04T01:27:44.713Z,0.00
2022-10-04T01:28:44.656Z,0.00
2022-10-04T01:29:44.658Z,0.00
2022-10-04T01:30:44.633Z,0.00
2022-10-04T01:31:44.927Z,0.00
2022-10-04T01:32:45.452Z,0.00
2022-10-04T01:33:44.617Z,0.00
2022-10-04T01:34:44.590Z,0.00
2022-10-04T01:35:44.577Z,0.00
2022-10-04T01:36:44.575Z,0.00
2022-10-04T01:37:44.562Z,0.00
2022-10-04T01:38:44.555Z,0.00
2022-10-04T01:39:44.537Z,0.00
2022-10-04T01:40:44.536Z,0.00
2022-10-04T01:41:44.520Z,0.00
2022-10-04T01:42:44.496Z,0.00
2022-10-04T01:43:44.513Z,0.00
2022-10-04T01:44:44.471Z,0.00
2022-10-04T01:45:44.469Z,0.00
2022-10-04T01:46:44.562Z,0.00
2022-10-04T01:47:44.457Z,0.00
2022-10-04T01:48:44.482Z,0.00
2022-10-04T01:49:44.417Z,0.00
2022-10-04T01:50:44.411Z,0.00
2022-10-04T01:51:44.400Z,0.00
2022-10-04T01:52:44.386Z,0.00
2022-10-04T01:53:44.381Z,0.00
2022-10-04T01:54:44.358Z,0.00
2022-10-04T01:55:44.355Z,0.00
2022-10-04T01:56:44.345Z,0.00
2022-10-04T01:57:44.333Z,0.00
2022-10-04T01:58:44.340Z,0.00
2022-10-04T01:59:44.328Z,0.00
2022-10-04T02:00:44.342Z,0.00
2022-10-04T02:01:44.578Z,0.00
2022-10-04T02:02:44.268Z,0.00
2022-10-04T02:03:44.413Z,0.00
2022-10-04T02:04:44.417Z,0.00
2022-10-04T02:05:44.244Z,0.00
2022-10-04T02:06:44.258Z,0.00
2022-10-04T02:07:44.228Z,0.00
2022-10-04T02:08:44.671Z,0.00
2022-10-04T02:09:44.253Z,0.00
2022-10-04T02:10:44.186Z,0.00
2022-10-04T02:11:44.442Z,0.00
2022-10-04T02:12:44.168Z,0.00
2022-10-04T02:13:44.204Z,0.00
2022-10-04T02:14:44.143Z,0.00
2022-10-04T02:15:44.194Z,0.00
2022-10-04T02:16:44.112Z,0.00
2022-10-04T02:17:44.108Z,0.00
2022-10-04T02:18:44.096Z,0.00
2022-10-04T02:19:44.092Z,0.00
2022-10-04T02:20:44.087Z,0.00
2022-10-04T02:21:44.192Z,0.00
2022-10-04T02:22:44.039Z,0.00
2022-10-04T02:23:44.034Z,0.00
2022-10-04T02:24:44.014Z,0.00
2022-10-04T02:25:44.006Z,0.00
2022-10-04T02:26:44.003Z,0.00
2022-10-04T02:27:44.012Z,0.00
2022-10-04T02:28:43.977Z,0.00
2022-10-04T02:29:43.966Z,0.00
2022-10-04T02:30:43.977Z,0.00
2022-10-04T02:31:44.338Z,0.00
2022-10-04T02:32:43.956Z,0.00
2022-10-04T02:33:43.942Z,0.00
2022-10-04T02:34:43.902Z,0.00
2022-10-04T02:35:43.912Z,0.00
2022-10-04T02:36:43.919Z,0.00
2022-10-04T02:37:43.874Z,0.00
2022-10-04T02:38:43.857Z,0.00
2022-10-04T02:39:43.851Z,0.00
2022-10-04T02:40:43.866Z,0.00
2022-10-04T02:41:44.114Z,0.00
2022-10-04T02:42:43.932Z,0.00
2022-10-04T02:43:43.811Z,0.00
2022-10-04T02:44:43.791Z,0.00
2022-10-04T02:45:43.780Z,0.00
2022-10-04T02:46:43.822Z,0.00
2022-10-04T02:47:43.826Z,0.00
2022-10-04T02:48:43.761Z,0.00
2022-10-04T02:49:43.736Z,0.00
2022-10-04T02:50:43.725Z,0.00
2022-10-04T02:51:43.988Z,0.00
2022-10-04T02:52:43.703Z,0.00
2022-10-04T02:53:43.712Z,0.00
2022-10-04T02:54:43.695Z,0.00
2022-10-04T02:55:43.676Z,0.00
2022-10-04T02:56:43.651Z,0.00
2022-10-04T02:57:43.652Z,0.00
2022-10-04T02:58:43.636Z,0.00
2022-10-04T02:59:43.622Z,0.00
2022-10-04T03:00:43.675Z,0.00
2022-10-04T03:01:44.090Z,0.00
2022-10-04T03:02:43.644Z,0.00
2022-10-04T03:03:43.596Z,0.00
2022-10-04T03:04:43.561Z,0.00
2022-10-04T03:05:43.570Z,0.00
2022-10-04T03:06:43.541Z,0.00
2022-10-04T03:07:43.528Z,0.00
2022-10-04T03:08:43.534Z,0.00
2022-10-04T03:09:43.509Z,0.00
2022-10-04T03:10:43.494Z,0.00
2022-10-04T03:11:43.750Z,0.00
2022-10-04T03:12:43.508Z,0.00
2022-10-04T03:13:43.478Z,0.00
2022-10-04T03:14:43.445Z,0.00
2022-10-04T03:15:43.502Z,0.00
2022-10-04T03:16:43.425Z,0.00
2022-10-04T03:17:43.452Z,0.00
2022-10-04T03:18:43.411Z,0.00
2022-10-04T03:19:43.432Z,0.00
2022-10-04T03:20:43.383Z,0.00
2022-10-04T03:21:43.569Z,0.00
2022-10-04T03:22:46.721Z,0.00
2022-10-04T03:23:43.348Z,0.00
2022-10-04T03:24:43.382Z,0.00
2022-10-04T03:25:43.348Z,0.00
2022-10-04T03:26:43.338Z,0.00
2022-10-04T03:27:43.303Z,0.00
2022-10-04T03:28:43.295Z,0.00
2022-10-04T03:29:43.293Z,0.00
2022-10-04T03:30:43.271Z,0.00
2022-10-04T03:31:43.626Z,0.00
2022-10-04T03:32:43.245Z,0.00
2022-10-04T03:33:43.240Z,0.00
2022-10-04T03:34:43.224Z,0.00
2022-10-04T03:35:43.227Z,0.00
2022-10-04T03:36:43.213Z,0.00
2022-10-04T03:37:43.205Z,0.00
2022-10-04T03:38:43.178Z,0.00
2022-10-04T03:39:43.183Z,0.00
2022-10-04T03:40:43.158Z,0.00
2022-10-04T03:41:43.402Z,0.00
2022-10-04T03:42:43.170Z,0.00
2022-10-04T03:43:43.120Z,0.00
2022-10-04T03:44:43.120Z,0.00
2022-10-04T03:45:43.106Z,0.00
2022-10-04T03:46:43.098Z,0.00
2022-10-04T03:47:43.071Z,0.00
2022-10-04T03:48:43.067Z,0.00
2022-10-04T03:49:46.191Z,0.00
2022-10-04T03:50:44.040Z,0.00
2022-10-04T03:51:43.336Z,0.00
2022-10-04T03:52:43.022Z,0.00
2022-10-04T03:53:43.040Z,0.00
2022-10-04T03:54:42.997Z,0.00
2022-10-04T03:55:43.010Z,0.00
2022-10-04T03:56:42.984Z,0.00
2022-10-04T03:57:42.963Z,0.00
2022-10-04T03:58:42.948Z,0.00
2022-10-04T03:59:42.964Z,0.00
2022-10-04T04:00:42.999Z,0.00
2022-10-04T04:01:43.221Z,0.00
2022-10-04T04:02:45.962Z,0.00
2022-10-04T04:03:42.892Z,0.00
2022-10-04T04:04:42.881Z,0.00
2022-10-04T04:05:42.904Z,0.00
2022-10-04T04:06:42.879Z,0.00
2022-10-04T04:07:42.873Z,0.00
2022-10-04T04:08:42.840Z,0.00
2022-10-04T04:09:42.821Z,0.00
2022-10-04T04:10:42.812Z,0.00
2022-10-04T04:11:42.977Z,0.00
2022-10-04T04:12:42.809Z,0.00
2022-10-04T04:13:42.777Z,0.00
2022-10-04T04:14:42.769Z,0.00
2022-10-04T04:15:42.777Z,0.00
2022-10-04T04:16:42.784Z,0.00
2022-10-04T04:17:42.744Z,0.00
2022-10-04T04:18:42.724Z,0.00
2022-10-04T04:19:42.731Z,0.00
2022-10-04T04:20:42.708Z,0.00
2022-10-04T04:21:43.040Z,0.00
2022-10-04T04:22:42.688Z,0.00
2022-10-04T04:23:42.689Z,0.00
2022-10-04T04:24:42.687Z,0.00
2022-10-04T04:25:42.640Z,0.00
2022-10-04T04:26:42.630Z,0.00
2022-10-04T04:27:42.623Z,0.00
2022-10-04T04:28:42.610Z,0.00
2022-10-04T04:29:42.592Z,0.00
2022-10-04T04:30:42.586Z,0.00
2022-10-04T04:31:42.818Z,0.00
2022-10-04T04:32:42.577Z,0.00
2022-10-04T04:33:42.545Z,0.00
2022-10-04T04:34:42.545Z,0.00
2022-10-04T04:35:42.530Z,0.00
2022-10-04T04:36:42.562Z,0.00
2022-10-04T04:37:42.513Z,0.00
2022-10-04T04:38:42.493Z,0.00
2022-10-04T04:39:42.518Z,0.00
2022-10-04T04:40:42.477Z,0.00
2022-10-04T04:41:45.705Z,0.00
2022-10-04T04:42:43.476Z,0.00
2022-10-04T04:43:42.443Z,0.00
2022-10-04T04:44:42.432Z,0.00
2022-10-04T04:45:42.467Z,0.00
2022-10-04T04:46:42.423Z,0.00
2022-10-04T04:47:42.393Z,0.00
2022-10-04T04:48:42.413Z,0.00
2022-10-04T04:49:42.369Z,0.00
2022-10-04T04:50:42.393Z,0.00
2022-10-04T04:51:42.652Z,0.00
2022-10-04T04:52:42.338Z,0.00
2022-10-04T04:53:42.322Z,0.00
2022-10-04T04:54:42.321Z,0.00
2022-10-04T04:56:02.402Z,0.00
2022-10-04T04:56:43.294Z,0.00
2022-10-04T04:57:42.283Z,0.00
2022-10-04T04:58:42.271Z,0.00
2022-10-04T04:59:42.282Z,0.00
2022-10-04T05:00:42.272Z,0.00
2022-10-04T05:01:42.552Z,0.00
2022-10-04T05:02:42.220Z,0.00
2022-10-04T05:03:42.257Z,0.00
2022-10-04T05:04:42.209Z,0.00
2022-10-04T05:05:42.201Z,0.00
2022-10-04T05:06:42.178Z,0.00
2022-10-04T05:07:42.166Z,0.00
2022-10-04T05:08:42.162Z,0.00
2022-10-04T05:09:42.140Z,0.00
2022-10-04T05:10:42.258Z,0.00
2022-10-04T05:11:42.423Z,0.00
2022-10-04T05:12:42.149Z,0.00
2022-10-04T05:13:42.100Z,0.00
2022-10-04T05:14:42.091Z,0.00
2022-10-04T05:15:42.071Z,0.00
2022-10-04T05:16:42.182Z,0.00
2022-10-04T05:17:42.058Z,0.00
2022-10-04T05:18:42.046Z,0.00
2022-10-04T05:19:42.049Z,0.00
2022-10-04T05:20:42.018Z,0.00
2022-10-04T05:21:42.964Z,0.00
2022-10-04T05:22:42.004Z,0.00
2022-10-04T05:23:41.983Z,0.00
2022-10-04T05:24:41.973Z,0.00
2022-10-04T05:25:41.992Z,0.00
2022-10-04T05:26:41.959Z,0.00
2022-10-04T05:27:42.047Z,0.00
2022-10-04T05:28:41.927Z,0.00
2022-10-04T05:29:41.915Z,0.00
2022-10-04T05:30:41.906Z,0.00
2022-10-04T05:31:42.225Z,0.00
2022-10-04T05:32:41.909Z,0.00
2022-10-04T05:33:41.876Z,0.00
2022-10-04T05:34:41.857Z,0.00
2022-10-04T05:35:41.861Z,0.00
2022-10-04T05:36:41.845Z,0.00
2022-10-04T05:37:41.830Z,0.00
2022-10-04T05:38:41.810Z,0.00
2022-10-04T05:39:41.801Z,0.00
2022-10-04T05:40:41.792Z,0.00
2022-10-04T05:41:41.804Z,0.00
2022-10-04T05:42:41.783Z,0.00
2022-10-04T05:43:41.769Z,0.00
2022-10-04T05:44:41.747Z,0.00
2022-10-04T05:45:41.772Z,0.00
2022-10-04T05:46:44.099Z,0.00
2022-10-04T05:47:41.720Z,0.00
2022-10-04T05:48:41.700Z,0.00
2022-10-04T05:49:41.698Z,0.00
2022-10-04T05:50:41.676Z,0.00
2022-10-04T05:51:42.010Z,0.00
2022-10-04T05:52:41.656Z,0.00
2022-10-04T05:53:41.639Z,5.62
2022-10-04T05:54:41.666Z,5.62
2022-10-04T05:55:41.638Z,5.62
2022-10-04T05:56:41.605Z,5.62
2022-10-04T05:57:41.603Z,5.62
2022-10-04T05:58:41.630Z,5.62
2022-10-04T05:59:41.598Z,5.62
2022-10-04T06:00:41.561Z,5.62
2022-10-04T06:01:41.872Z,5.62
2022-10-04T06:02:41.571Z,5.62
2022-10-04T06:03:41.536Z,11.25
2022-10-04T06:04:41.536Z,11.25
2022-10-04T06:05:41.504Z,11.25
2022-10-04T06:06:41.497Z,11.25
2022-10-04T06:07:41.503Z,11.25
2022-10-04T06:08:41.474Z,11.25
2022-10-04T06:09:41.564Z,11.25
2022-10-04T06:10:41.447Z,11.25
2022-10-04T06:11:41.865Z,11.25
2022-10-04T06:12:44.394Z,11.25
2022-10-04T06:13:41.415Z,11.25
2022-10-04T06:14:41.411Z,16.88
2022-10-04T06:15:41.418Z,16.88
2022-10-04T06:16:41.534Z,16.88
2022-10-04T06:17:41.368Z,16.88
2022-10-04T06:18:41.390Z,16.88
2022-10-04T06:19:41.389Z,16.88
2022-10-04T06:20:41.347Z,16.88
2022-10-04T06:21:41.658Z,16.88
2022-10-04T06:22:41.315Z,16.88
2022-10-04T06:23:41.298Z,16.88
2022-10-04T06:24:41.290Z,16.88
2022-10-04T06:25:41.323Z,22.50
2022-10-04T06:26:41.273Z,22.50
2022-10-04T06:27:41.253Z,22.50
2022-10-04T06:28:41.259Z,22.50
2022-10-04T06:29:41.228Z,22.50
2022-10-04T06:30:41.343Z,22.50
2022-10-04T06:31:41.623Z,22.50
2022-10-04T06:32:41.206Z,22.50
2022-10-04T06:33:41.190Z,28.12
2022-10-04T06:34:41.182Z,28.12
2022-10-04T06:35:41.198Z,28.12
2022-10-04T06:36:41.160Z,28.12
2022-10-04T06:37:41.167Z,28.12
2022-10-04T06:38:41.128Z,28.12
2022-10-04T06:39:41.130Z,28.12
2022-10-04T06:40:41.234Z,28.12
2022-10-04T06:41:41.474Z,28.12
2022-10-04T06:42:41.090Z,28.12
2022-10-04T06:43:41.072Z,33.75
2022-10-04T06:44:44.371Z,33.75
2022-10-04T06:45:42.107Z,33.75
2022-10-04T06:46:41.056Z,33.75
2022-10-04T06:47:41.043Z,33.75
2022-10-04T06:48:41.014Z,33.75
2022-10-04T06:49:40.998Z,33.75
2022-10-04T06:50:40.997Z,33.75
2022-10-04T06:51:41.291Z,33.75
2022-10-04T06:52:40.977Z,33.75
2022-10-04T06:53:40.955Z,33.75
2022-10-04T06:54:40.946Z,33.75
2022-10-04T06:55:40.955Z,33.75
2022-10-04T06:56:40.925Z,33.75
2022-10-04T06:57:40.933Z,33.75
2022-10-04T06:58:40.906Z,39.38
2022-10-04T06:59:40.887Z,39.38
2022-10-04T07:00:40.879Z,39.38
2022-10-04T07:01:41.090Z,39.38
2022-10-04T07:02:40.980Z,39.38
2022-10-04T07:03:40.863Z,39.38
2022-10-04T07:05:07.086Z,45.00
2022-10-04T07:05:41.830Z,45.00
2022-10-04T07:06:40.844Z,45.00
2022-10-04T07:07:40.797Z,45.00
2022-10-04T07:08:40.795Z,45.00
2022-10-04T07:09:40.799Z,45.00
2022-10-04T07:10:40.774Z,45.00
2022-10-04T07:11:41.034Z,50.62
2022-10-04T07:12:40.759Z,50.62
2022-10-04T07:13:40.729Z,50.62
2022-10-04T07:14:40.723Z,50.62
2022-10-04T07:15:40.726Z,50.62
2022-10-04T07:16:40.766Z,50.62
2022-10-04T07:17:40.698Z,56.25
2022-10-04T07:18:40.694Z,56.25
2022-10-04T07:19:40.679Z,50.62
2022-10-04T07:22:08.237Z,50.62
2022-10-04T07:23:08.198Z,50.62
2022-10-04T07:24:08.170Z,56.25
2022-10-04T07:25:08.166Z,56.25
2022-10-04T07:26:08.158Z,56.25
2022-10-04T07:27:08.147Z,56.25
2022-10-04T07:28:08.153Z,61.88
2022-10-04T07:29:08.131Z,61.88
2022-10-04T07:30:08.115Z,78.75
2022-10-04T07:31:08.139Z,56.25
2022-10-04T07:32:08.087Z,50.62
2022-10-04T07:33:08.076Z,50.62
2022-10-04T07:34:08.083Z,56.25
2022-10-04T07:35:08.074Z,61.88
2022-10-04T07:36:08.046Z,73.12
2022-10-04T07:37:08.040Z,84.38
2022-10-04T07:38:08.029Z,90.00
2022-10-04T07:39:08.037Z,90.00
2022-10-04T07:40:08.030Z,90.00
2022-10-04T07:41:07.993Z,95.62
2022-10-04T07:42:07.974Z,95.62
2022-10-04T07:43:07.961Z,90.00
2022-10-04T07:44:07.957Z,112.50
2022-10-04T07:45:07.951Z,112.50
2022-10-04T07:46:08.060Z,123.75
2022-10-04T07:47:07.920Z,180.00
2022-10-04T07:48:07.917Z,320.62
2022-10-04T07:49:07.898Z,472.50
2022-10-04T07:50:07.908Z,652.50
2022-10-04T07:51:07.907Z,866.25
2022-10-04T07:52:07.883Z,838.12
2022-10-04T07:53:09.663Z,793.12
2022-10-04T07:54:07.848Z,832.50
2022-10-04T07:55:07.834Z,832.50
2022-10-04T07:56:07.845Z,444.38
2022-10-04T07:57:07.825Z,163.12
2022-10-04T07:58:07.797Z,123.75
2022-10-04T07:59:07.789Z,112.50
2022-10-04T08:00:07.779Z,106.88
2022-10-04T08:01:07.766Z,95.62
2022-10-04T08:02:07.864Z,90.00
2022-10-04T08:03:07.834Z,90.00
2022-10-04T08:04:07.737Z,84.38
2022-10-04T08:05:07.722Z,84.38
2022-10-04T08:06:07.713Z,90.00
2022-10-04T08:07:15.273Z,90.00
2022-10-04T08:08:07.687Z,95.62
2022-10-04T08:09:07.688Z,95.62
2022-10-04T08:10:07.658Z,101.25
2022-10-04T08:11:07.660Z,101.25
2022-10-04T08:12:15.062Z,101.25
2022-10-04T08:13:07.637Z,84.38
2022-10-04T08:14:07.621Z,84.38
2022-10-04T08:15:07.649Z,84.38
2022-10-04T08:16:07.712Z,90.00
2022-10-04T08:17:09.828Z,84.38
2022-10-04T08:18:08.583Z,73.12
2022-10-04T08:19:07.565Z,73.12
2022-10-04T08:20:07.555Z,84.38
2022-10-04T08:21:07.543Z,101.25
2022-10-04T08:22:07.539Z,90.00
2022-10-04T08:23:07.580Z,112.50
2022-10-04T08:24:07.508Z,118.12
2022-10-04T08:25:07.500Z,106.88
2022-10-04T08:26:07.492Z,90.00
2022-10-04T08:27:07.477Z,90.00
2022-10-04T08:28:07.529Z,90.00
2022-10-04T08:29:07.458Z,84.38
2022-10-04T08:30:07.487Z,118.12
2022-10-04T08:31:07.485Z,123.75
2022-10-04T08:32:07.435Z,123.75
2022-10-04T08:33:07.412Z,123.75
2022-10-04T08:34:07.414Z,118.12
2022-10-04T08:35:07.385Z,118.12
2022-10-04T08:36:07.387Z,112.50
2022-10-04T08:37:07.389Z,112.50
2022-10-04T08:38:07.361Z,112.50
2022-10-04T08:39:07.492Z,112.50
2022-10-04T08:40:12.001Z,106.88
2022-10-04T08:41:08.349Z,106.88
2022-10-04T08:42:07.335Z,106.88
2022-10-04T08:43:07.300Z,106.88
2022-10-04T08:44:07.292Z,106.88
2022-10-04T08:45:07.283Z,106.88
2022-10-04T08:46:07.324Z,106.88
2022-10-04T08:47:07.293Z,106.88
2022-10-04T08:48:07.246Z,106.88
2022-10-04T08:49:07.227Z,106.88
2022-10-04T08:50:07.233Z,106.88
2022-10-04T08:51:07.227Z,112.50
2022-10-04T08:52:07.199Z,112.50
2022-10-04T08:53:10.790Z,112.50
2022-10-04T08:54:07.199Z,112.50
2022-10-04T08:55:07.193Z,112.50
2022-10-04T08:56:07.156Z,112.50
2022-10-04T08:57:08.044Z,112.50
2022-10-04T08:58:07.151Z,112.50
2022-10-04T08:59:07.116Z,112.50
2022-10-04T09:00:07.113Z,112.50
2022-10-04T09:01:07.172Z,112.50
2022-10-04T09:02:07.105Z,118.12
2022-10-04T09:03:07.157Z,118.12
2022-10-04T09:04:07.077Z,118.12
2022-10-04T09:05:07.065Z,112.50
2022-10-04T09:06:07.048Z,112.50
2022-10-04T09:07:07.032Z,73.12
2022-10-04T09:08:07.034Z,118.12
2022-10-04T09:09:07.015Z,112.50
2022-10-04T09:10:07.004Z,101.25
2022-10-04T09:11:07.007Z,90.00
2022-10-04T09:12:06.974Z,112.50
2022-10-04T09:13:06.976Z,101.25
2022-10-04T09:14:06.956Z,118.12
2022-10-04T09:15:06.939Z,118.12
2022-10-04T09:16:07.074Z,118.12
2022-10-04T09:17:06.914Z,112.50
2022-10-04T09:18:06.912Z,112.50
2022-10-04T09:19:06.895Z,106.88
2022-10-04T09:20:33.284Z,106.88
2022-10-04T09:21:07.880Z,106.88
2022-10-04T09:22:06.862Z,101.25
2022-10-04T09:23:06.871Z,101.25
2022-10-04T09:24:06.886Z,106.88
2022-10-04T09:25:06.850Z,106.88
2022-10-04T09:26:06.829Z,112.50
2022-10-04T09:27:06.899Z,112.50
2022-10-04T09:28:06.847Z,106.88
2022-10-04T09:29:06.794Z,112.50
2022-10-04T09:30:06.777Z,118.12
2022-10-04T09:31:06.870Z,112.50
2022-10-04T09:32:06.757Z,112.50
2022-10-04T09:33:06.761Z,112.50
2022-10-04T09:34:06.735Z,112.50
2022-10-04T09:35:06.721Z,112.50
2022-10-04T09:36:06.707Z,106.88
2022-10-04T09:37:06.694Z,106.88
2022-10-04T09:38:06.689Z,112.50
2022-10-04T09:39:29.016Z,112.50
2022-10-04T09:40:07.686Z,106.88
2022-10-04T09:41:06.673Z,106.88
2022-10-04T09:42:06.649Z,106.88
2022-10-04T09:43:06.694Z,106.88
2022-10-04T09:44:06.650Z,106.88
2022-10-04T09:45:06.624Z,106.88
2022-10-04T09:46:06.636Z,106.88
2022-10-04T09:47:06.583Z,106.88
2022-10-04T09:48:06.585Z,106.88
2022-10-04T09:49:06.564Z,106.88
2022-10-04T09:50:06.564Z,106.88
2022-10-04T09:51:06.538Z,106.88
2022-10-04T09:52:06.542Z,106.88
2022-10-04T09:53:06.517Z,106.88
2022-10-04T09:54:06.504Z,106.88
2022-10-04T09:55:06.538Z,106.88
2022-10-04T09:56:06.485Z,106.88
2022-10-04T09:57:06.465Z,101.25
2022-10-04T09:58:06.459Z,106.88
2022-10-04T09:59:06.483Z,106.88
2022-10-04T10:00:06.447Z,106.88
2022-10-04T10:01:06.424Z,106.88
2022-10-04T10:02:06.458Z,90.00
2022-10-04T10:03:06.446Z,106.88
2022-10-04T10:04:06.394Z,106.88
2022-10-04T10:05:06.402Z,106.88
2022-10-04T10:06:06.366Z,106.88
2022-10-04T10:07:06.371Z,112.50
2022-10-04T10:08:06.347Z,106.88
2022-10-04T10:09:06.343Z,106.88
2022-10-04T10:10:06.348Z,106.88
2022-10-04T10:11:06.309Z,106.88
2022-10-04T10:12:06.331Z,112.50
2022-10-04T10:13:06.294Z,106.88
2022-10-04T10:14:06.279Z,106.88
2022-10-04T10:15:06.285Z,106.88
2022-10-04T10:16:06.379Z,106.88
2022-10-04T10:17:06.246Z,106.88
2022-10-04T10:18:06.245Z,106.88
2022-10-04T10:19:06.219Z,106.88
2022-10-04T10:20:06.211Z,106.88
2022-10-04T10:21:06.425Z,106.88
2022-10-04T10:22:06.359Z,106.88
2022-10-04T10:23:06.185Z,106.88
2022-10-04T10:24:06.172Z,106.88
2022-10-04T10:25:06.150Z,106.88
2022-10-04T10:26:06.147Z,106.88
2022-10-04T10:27:06.136Z,106.88
2022-10-04T10:28:06.137Z,106.88
2022-10-04T10:29:06.124Z,106.88
2022-10-04T10:30:06.100Z,106.88
2022-10-04T10:31:06.213Z,106.88
2022-10-04T10:32:06.088Z,106.88
2022-10-04T10:33:06.063Z,112.50
2022-10-04T10:34:06.082Z,106.88
2022-10-04T10:35:06.046Z,106.88
2022-10-04T10:36:06.038Z,106.88
2022-10-04T10:37:06.026Z,106.88
2022-10-04T10:38:06.016Z,106.88
2022-10-04T10:39:06.004Z,106.88
2022-10-04T10:40:06.010Z,106.88
2022-10-04T10:41:05.978Z,106.88
2022-10-04T10:42:05.988Z,106.88
2022-10-04T10:49:01.989Z,106.88
2022-10-04T10:50:01.952Z,106.88
2022-10-04T10:51:01.936Z,106.88
2022-10-04T10:52:01.920Z,90.00
2022-10-04T10:53:01.916Z,101.25
2022-10-04T10:54:01.926Z,39.38
2022-10-04T10:55:01.938Z,90.00
2022-10-04T10:56:01.882Z,106.88
2022-10-04T10:57:01.871Z,101.25
2022-10-04T10:58:01.883Z,106.88
2022-10-04T10:59:01.853Z,101.25
2022-10-04T11:00:01.856Z,95.62
2022-10-04T11:01:01.827Z,106.88
2022-10-04T11:02:01.966Z,95.62
2022-10-04T11:03:12.800Z,106.88
2022-10-04T11:04:02.861Z,90.00
2022-10-04T11:05:01.801Z,95.62
2022-10-04T11:06:01.793Z,84.38
2022-10-04T11:07:01.757Z,101.25
2022-10-04T11:08:01.742Z,101.25
2022-10-04T11:09:01.737Z,101.25
2022-10-04T11:10:01.724Z,101.25
2022-10-04T11:11:01.728Z,101.25
2022-10-04T11:12:01.720Z,101.25
2022-10-04T11:13:01.688Z,95.62
2022-10-04T11:14:01.674Z,101.25
2022-10-04T11:15:01.669Z,101.25
2022-10-04T11:16:01.740Z,95.62
2022-10-04T11:17:01.658Z,95.62
2022-10-04T11:18:01.633Z,90.00
2022-10-04T11:19:01.622Z,90.00
2022-10-04T11:20:01.622Z,95.62
2022-10-04T11:21:01.629Z,95.62
2022-10-04T11:22:01.604Z,95.62
2022-10-04T11:23:01.590Z,95.62
2022-10-04T11:24:01.568Z,95.62
2022-10-04T11:25:01.554Z,95.62
2022-10-04T11:26:01.548Z,95.62
2022-10-04T11:27:01.544Z,95.62
2022-10-04T11:28:01.586Z,84.38
2022-10-04T11:29:01.514Z,95.62
2022-10-04T11:30:01.494Z,90.00
2022-10-04T11:31:01.605Z,90.00
2022-10-04T11:32:01.483Z,90.00
2022-10-04T11:33:01.483Z,90.00
2022-10-04T11:34:01.449Z,90.00
2022-10-04T11:35:01.446Z,90.00
2022-10-04T11:36:01.428Z,90.00
2022-10-04T11:37:01.444Z,90.00
2022-10-04T11:38:01.415Z,90.00
2022-10-04T11:39:01.408Z,90.00
2022-10-04T11:40:01.393Z,90.00
2022-10-04T11:41:01.391Z,90.00
2022-10-04T11:42:01.358Z,84.38
2022-10-04T11:43:01.369Z,84.38
2022-10-04T11:44:01.355Z,84.38
2022-10-04T11:45:01.338Z,84.38
2022-10-04T11:46:01.324Z,84.38
2022-10-04T11:47:01.403Z,84.38
2022-10-04T11:48:01.293Z,84.38
2022-10-04T11:49:01.308Z,84.38
2022-10-04T11:50:01.277Z,78.75
2022-10-04T11:51:01.266Z,95.62
2022-10-04T11:52:02.477Z,90.00
2022-10-04T11:53:01.259Z,78.75
2022-10-04T11:54:01.229Z,78.75
2022-10-04T11:55:01.223Z,90.00
2022-10-04T11:56:01.215Z,84.38
2022-10-04T11:57:01.207Z,84.38
2022-10-04T11:58:01.192Z,84.38
2022-10-04T11:59:01.175Z,84.38
2022-10-04T12:00:01.168Z,84.38
2022-10-04T12:01:01.156Z,84.38
2022-10-04T12:02:01.138Z,84.38
2022-10-04T12:03:01.128Z,84.38
2022-10-04T12:04:01.280Z,84.38
2022-10-04T12:05:01.170Z,78.75
2022-10-04T12:06:01.091Z,78.75
2022-10-04T12:07:01.092Z,78.75
2022-10-04T12:08:01.073Z,78.75
2022-10-04T12:09:01.082Z,78.75
2022-10-04T12:10:01.403Z,78.75
2022-10-04T12:11:01.034Z,78.75
2022-10-04T12:12:01.032Z,78.75
2022-10-04T12:13:01.051Z,78.75
2022-10-04T12:14:01.003Z,78.75
2022-10-04T12:15:00.991Z,78.75
2022-10-04T12:16:01.034Z,78.75
2022-10-04T12:17:00.992Z,78.75
2022-10-04T12:18:00.953Z,73.12
2022-10-04T12:19:00.955Z,73.12
2022-10-04T12:20:00.942Z,73.12
2022-10-04T12:21:00.925Z,73.12
2022-10-04T12:22:00.913Z,73.12
2022-10-04T12:23:00.948Z,73.12
2022-10-04T12:24:00.892Z,73.12
2022-10-04T12:25:00.900Z,73.12
2022-10-04T12:26:00.868Z,73.12
2022-10-04T12:27:00.861Z,67.50
2022-10-04T12:28:00.918Z,67.50
2022-10-04T12:29:00.845Z,67.50
2022-10-04T12:30:00.822Z,67.50
2022-10-04T12:31:00.817Z,67.50
2022-10-04T12:32:00.855Z,67.50
2022-10-04T12:33:00.790Z,67.50
2022-10-04T12:34:00.780Z,67.50
2022-10-04T12:35:00.778Z,61.88
2022-10-04T12:36:00.767Z,61.88
2022-10-04T12:37:00.776Z,61.88
2022-10-04T12:38:00.734Z,61.88
2022-10-04T12:39:00.738Z,61.88
2022-10-04T12:40:00.715Z,61.88
2022-10-04T12:41:00.735Z,61.88
2022-10-04T12:42:00.682Z,56.25
2022-10-04T12:43:00.684Z,56.25
2022-10-04T12:44:00.665Z,61.88
2022-10-04T12:45:00.660Z,61.88
2022-10-04T12:46:00.864Z,56.25
2022-10-04T12:47:00.629Z,56.25
2022-10-04T12:48:00.616Z,61.88
2022-10-04T12:49:00.624Z,56.25
2022-10-04T12:50:00.611Z,61.88
2022-10-04T12:51:00.585Z,61.88
2022-10-04T12:52:00.575Z,61.88
2022-10-04T12:53:00.562Z,56.25
2022-10-04T12:54:00.574Z,50.62
2022-10-04T12:55:00.542Z,56.25
2022-10-04T12:56:00.556Z,50.62
2022-10-04T12:57:00.541Z,50.62
2022-10-04T12:58:00.511Z,56.25
2022-10-04T12:59:00.495Z,45.00
2022-10-04T13:00:00.510Z,50.62
2022-10-04T13:01:02.430Z,50.62
2022-10-04T13:02:00.572Z,50.62
2022-10-04T13:03:00.447Z,50.62
2022-10-04T13:04:00.450Z,50.62
2022-10-04T13:05:00.425Z,45.00
2022-10-04T13:06:00.438Z,45.00